sensor_id;sensor_type;location;lat;lon;timestamp;noise_LAeq;noise_LA_min;noise_LA_max;noise_LA01;noise_LA95
61095;Laerm;20450;49.074;9.158;2022-09-01T00:01:58;43.41;41.89;44.83;;
61095;Laerm;20450;49.074;9.158;2022-09-01T00:04:27;43.52;41.89;45.07;;
61095;Laerm;20450;49.074;9.158;2022-09-01T00:06:54;43.64;42.16;45.27;;
61095;Laerm;20450;49.074;9.158;2022-09-01T00:09:23;43.48;41.75;44.87;;
61095;Laerm;20450;49.074;9.158;2022-09-01T00:11:53;43.29;41.68;44.62;;
61095;Laerm;20450;49.074;9.158;2022-09-01T00:14:26;43.28;41.75;47.22;;
61095;Laerm;20450;49.074;9.158;2022-09-01T00:16:57;43.47;41.96;44.69;;
61095;Laerm;20450;49.074;9.158;2022-09-01T00:19:27;43.47;41.96;44.87;;
61095;Laerm;20450;49.074;9.158;2022-09-01T00:21:54;43.40;41.68;44.76;;
61095;Laerm;20450;49.074;9.158;2022-09-01T00:24:22;43.51;42.16;44.94;;
61095;Laerm;20450;49.074;9.158;2022-09-01T00:26:49;54.15;41.68;90.02;;
61095;Laerm;20450;49.074;9.158;2022-09-01T00:29:18;43.33;41.68;45.89;;
61095;Laerm;20450;49.074;9.158;2022-09-01T00:31:45;43.15;41.61;44.73;;
61095;Laerm;20450;49.074;9.158;2022-09-01T00:34:13;43.32;41.46;45.42;;
61095;Laerm;20450;49.074;9.158;2022-09-01T00:36:42;43.24;41.75;44.58;;
61095;Laerm;20450;49.074;9.158;2022-09-01T00:39:09;43.15;41.53;44.43;;
61095;Laerm;20450;49.074;9.158;2022-09-01T00:41:39;43.10;41.68;44.27;;
61095;Laerm;20450;49.074;9.158;2022-09-01T00:44:10;43.13;41.46;44.27;;
61095;Laerm;20450;49.074;9.158;2022-09-01T00:46:42;43.17;41.82;44.35;;
61095;Laerm;20450;49.074;9.158;2022-09-01T00:49:21;43.10;41.61;44.47;;
61095;Laerm;20450;49.074;9.158;2022-09-01T00:51:57;43.20;41.82;44.39;;
61095;Laerm;20450;49.074;9.158;2022-09-01T01:14:09;43.39;41.75;44.62;;
61095;Laerm;20450;49.074;9.158;2022-09-01T01:16:44;43.10;41.46;44.35;;
61095;Laerm;20450;49.074;9.158;2022-09-01T01:19:22;43.08;41.14;44.73;;
61095;Laerm;20450;49.074;9.158;2022-09-01T01:21:53;42.71;40.89;44.23;;
61095;Laerm;20450;49.074;9.158;2022-09-01T01:24:27;42.57;40.71;43.81;;
61095;Laerm;20450;49.074;9.158;2022-09-01T01:26:55;42.77;41.06;43.90;;
61095;Laerm;20450;49.074;9.158;2022-09-01T01:29:23;42.69;41.06;43.99;;
61095;Laerm;20450;49.074;9.158;2022-09-01T01:31:53;42.61;40.98;43.94;;
61095;Laerm;20450;49.074;9.158;2022-09-01T01:34:20;59.46;40.89;95.55;;
61095;Laerm;20450;49.074;9.158;2022-09-01T01:36:49;42.47;40.62;54.98;;
61095;Laerm;20450;49.074;9.158;2022-09-01T01:39:21;42.53;40.62;43.63;;
61095;Laerm;20450;49.074;9.158;2022-09-01T01:41:52;42.27;40.71;43.68;;
61095;Laerm;20450;49.074;9.158;2022-09-01T01:44:25;42.60;40.71;44.15;;
61095;Laerm;20450;49.074;9.158;2022-09-01T01:46:56;42.84;41.38;44.23;;
61095;Laerm;20450;49.074;9.158;2022-09-01T01:49:26;42.69;41.30;50.86;;
61095;Laerm;20450;49.074;9.158;2022-09-01T01:51:54;43.08;41.53;48.45;;
61095;Laerm;20450;49.074;9.158;2022-09-01T01:54:57;43.62;42.22;46.48;;
61095;Laerm;20450;49.074;9.158;2022-09-01T01:57:32;43.70;42.41;53.64;;
61095;Laerm;20450;49.074;9.158;2022-09-01T02:00:00;43.66;42.53;44.76;;
61095;Laerm;20450;49.074;9.158;2022-09-01T02:02:27;43.80;42.53;45.04;;
61095;Laerm;20450;49.074;9.158;2022-09-01T02:04:54;43.77;42.59;45.01;;
61095;Laerm;20450;49.074;9.158;2022-09-01T02:07:21;43.77;42.53;44.87;;
61095;Laerm;20450;49.074;9.158;2022-09-01T02:09:48;43.71;42.22;44.83;;
61095;Laerm;20450;49.074;9.158;2022-09-01T02:12:15;43.49;42.22;44.65;;
61095;Laerm;20450;49.074;9.158;2022-09-01T02:14:44;43.45;41.53;44.58;;
61095;Laerm;20450;49.074;9.158;2022-09-01T02:17:13;43.22;42.03;49.16;;
61095;Laerm;20450;49.074;9.158;2022-09-01T02:19:40;43.36;41.89;44.76;;
61095;Laerm;20450;49.074;9.158;2022-09-01T02:22:07;43.19;41.75;44.51;;
61095;Laerm;20450;49.074;9.158;2022-09-01T02:24:34;42.94;41.53;44.27;;
61095;Laerm;20450;49.074;9.158;2022-09-01T02:27:01;43.05;41.75;44.15;;
61095;Laerm;20450;49.074;9.158;2022-09-01T02:29:29;43.08;41.68;44.23;;
61095;Laerm;20450;49.074;9.158;2022-09-01T02:32:02;43.30;41.68;47.00;;
61095;Laerm;20450;49.074;9.158;2022-09-01T02:34:29;43.31;42.03;44.83;;
61095;Laerm;20450;49.074;9.158;2022-09-01T02:36:57;43.43;42.03;44.65;;
61095;Laerm;20450;49.074;9.158;2022-09-01T02:39:28;43.65;42.41;45.91;;
61095;Laerm;20450;49.074;9.158;2022-09-01T02:41:56;43.29;41.94;44.62;;
61095;Laerm;20450;49.074;9.158;2022-09-01T02:44:26;43.15;41.96;44.54;;
61095;Laerm;20450;49.074;9.158;2022-09-01T02:46:55;43.02;41.38;44.43;;
61095;Laerm;20450;49.074;9.158;2022-09-01T02:49:25;43.11;41.82;44.19;;
61095;Laerm;20450;49.074;9.158;2022-09-01T02:51:55;43.16;41.82;44.35;;
61095;Laerm;20450;49.074;9.158;2022-09-01T02:54:23;43.41;42.16;45.30;;
61095;Laerm;20450;49.074;9.158;2022-09-01T02:57:07;43.21;41.68;44.69;;
61095;Laerm;20450;49.074;9.158;2022-09-01T03:00:29;43.70;42.16;47.22;;
61095;Laerm;20450;49.074;9.158;2022-09-01T03:03:00;43.46;42.16;44.62;;
61095;Laerm;20450;49.074;9.158;2022-09-01T03:05:40;43.89;42.35;45.75;;
61095;Laerm;20450;49.074;9.158;2022-09-01T03:08:12;44.04;42.47;45.30;;
61095;Laerm;20450;49.074;9.158;2022-09-01T03:10:42;44.05;42.53;50.98;;
61095;Laerm;20450;49.074;9.158;2022-09-01T03:13:13;44.36;42.71;45.99;;
61095;Laerm;20450;49.074;9.158;2022-09-01T03:15:43;44.14;42.53;47.13;;
61095;Laerm;20450;49.074;9.158;2022-09-01T03:18:12;44.15;42.47;45.33;;
61095;Laerm;20450;49.074;9.158;2022-09-01T03:20:42;43.91;42.59;45.36;;
61095;Laerm;20450;49.074;9.158;2022-09-01T03:23:13;43.83;42.47;45.14;;
61095;Laerm;20450;49.074;9.158;2022-09-01T03:25:47;43.71;42.41;45.94;;
61095;Laerm;20450;49.074;9.158;2022-09-01T03:28:14;43.72;42.22;44.76;;
61095;Laerm;20450;49.074;9.158;2022-09-01T03:30:45;43.84;42.53;44.95;;
61095;Laerm;20450;49.074;9.158;2022-09-01T03:33:13;43.77;42.35;44.94;;
61095;Laerm;20450;49.074;9.158;2022-09-01T03:35:43;43.87;42.47;46.05;;
61095;Laerm;20450;49.074;9.158;2022-09-01T03:38:12;43.88;42.82;45.11;;
61095;Laerm;20450;49.074;9.158;2022-09-01T03:40:40;43.90;42.47;48.25;;
61095;Laerm;20450;49.074;9.158;2022-09-01T03:43:08;43.66;42.35;45.04;;
61095;Laerm;20450;49.074;9.158;2022-09-01T03:45:44;43.62;42.22;44.80;;
61095;Laerm;20450;49.074;9.158;2022-09-01T03:48:13;43.46;41.46;44.80;;
61095;Laerm;20450;49.074;9.158;2022-09-01T03:50:43;43.55;42.09;45.48;;
61095;Laerm;20450;49.074;9.158;2022-09-01T03:53:13;43.61;42.16;44.73;;
61095;Laerm;20450;49.074;9.158;2022-09-01T03:55:44;43.76;42.59;45.04;;
61095;Laerm;20450;49.074;9.158;2022-09-01T03:58:16;43.85;42.65;45.17;;
61095;Laerm;20450;49.074;9.158;2022-09-01T04:00:50;43.88;42.41;46.10;;
61095;Laerm;20450;49.074;9.158;2022-09-01T04:03:18;43.79;42.29;45.17;;
61095;Laerm;20450;49.074;9.158;2022-09-01T04:05:56;43.82;42.47;45.01;;
61095;Laerm;20450;49.074;9.158;2022-09-01T04:08:25;43.80;42.41;45.11;;
61095;Laerm;20450;49.074;9.158;2022-09-01T04:10:53;43.85;42.53;47.46;;
61095;Laerm;20450;49.074;9.158;2022-09-01T04:13:25;43.95;42.53;46.30;;
61095;Laerm;20450;49.074;9.158;2022-09-01T04:15:53;43.95;42.76;46.62;;
61095;Laerm;20450;49.074;9.158;2022-09-01T04:18:20;43.99;42.35;49.03;;
61095;Laerm;20450;49.074;9.158;2022-09-01T04:20:50;44.17;42.65;45.57;;
61095;Laerm;20450;49.074;9.158;2022-09-01T04:23:23;44.71;43.19;47.86;;
61095;Laerm;20450;49.074;9.158;2022-09-01T04:25:56;44.68;43.14;47.04;;
61095;Laerm;20450;49.074;9.158;2022-09-01T04:28:30;44.64;43.34;47.18;;
61095;Laerm;20450;49.074;9.158;2022-09-01T04:31:01;44.56;43.39;45.80;;
61095;Laerm;20450;49.074;9.158;2022-09-01T04:33:29;44.37;42.82;45.75;;
61095;Laerm;20450;49.074;9.158;2022-09-01T04:35:56;44.32;42.98;46.52;;
61095;Laerm;20450;49.074;9.158;2022-09-01T04:38:25;44.37;42.98;47.34;;
61095;Laerm;20450;49.074;9.158;2022-09-01T04:40:52;44.20;42.71;54.06;;
61095;Laerm;20450;49.074;9.158;2022-09-01T04:43:19;43.81;42.41;52.28;;
61095;Laerm;20450;49.074;9.158;2022-09-01T04:45:46;43.96;42.76;46.29;;
61095;Laerm;20450;49.074;9.158;2022-09-01T04:48:13;44.31;43.09;47.70;;
61095;Laerm;20450;49.074;9.158;2022-09-01T04:50:44;44.47;42.88;50.92;;
61095;Laerm;20450;49.074;9.158;2022-09-01T04:53:17;43.75;42.22;45.14;;
61095;Laerm;20450;49.074;9.158;2022-09-01T04:55:49;43.94;42.59;51.78;;
61095;Laerm;20450;49.074;9.158;2022-09-01T04:58:19;44.11;42.65;51.11;;
61095;Laerm;20450;49.074;9.158;2022-09-01T05:00:49;43.92;42.71;48.54;;
61095;Laerm;20450;49.074;9.158;2022-09-01T05:03:27;44.19;42.93;46.43;;
61095;Laerm;20450;49.074;9.158;2022-09-01T05:05:57;44.21;42.53;48.32;;
61095;Laerm;20450;49.074;9.158;2022-09-01T05:09:16;44.31;42.65;47.20;;
61095;Laerm;20450;49.074;9.158;2022-09-01T05:12:26;44.28;42.98;47.36;;
61095;Laerm;20450;49.074;9.158;2022-09-01T05:16:29;44.58;43.04;46.33;;
61095;Laerm;20450;49.074;9.158;2022-09-01T05:32:05;44.36;42.71;55.53;;
61095;Laerm;20450;49.074;9.158;2022-09-01T05:34:40;44.33;42.76;50.22;;
61095;Laerm;20450;49.074;9.158;2022-09-01T05:37:08;44.28;42.71;50.10;;
61095;Laerm;20450;49.074;9.158;2022-09-01T05:39:37;44.10;42.82;47.57;;
61095;Laerm;20450;49.074;9.158;2022-09-01T05:42:08;44.54;42.93;53.55;;
61095;Laerm;20450;49.074;9.158;2022-09-01T05:44:40;44.56;43.04;51.19;;
61095;Laerm;20450;49.074;9.158;2022-09-01T05:47:20;45.09;42.76;58.46;;
61095;Laerm;20450;49.074;9.158;2022-09-01T05:50:02;44.47;42.71;53.03;;
61095;Laerm;20450;49.074;9.158;2022-09-01T05:52:53;44.66;42.93;51.21;;
61095;Laerm;20450;49.074;9.158;2022-09-01T05:55:26;44.36;42.88;47.74;;
61095;Laerm;20450;49.074;9.158;2022-09-01T05:57:54;44.36;42.76;51.81;;
61095;Laerm;20450;49.074;9.158;2022-09-01T06:00:21;44.45;42.76;51.32;;
61095;Laerm;20450;49.074;9.158;2022-09-01T06:02:50;44.19;42.41;47.06;;
61095;Laerm;20450;49.074;9.158;2022-09-01T06:05:21;47.68;42.59;68.20;;
61095;Laerm;20450;49.074;9.158;2022-09-01T06:07:50;44.90;41.61;56.94;;
61095;Laerm;20450;49.074;9.158;2022-09-01T06:10:18;45.28;42.47;59.59;;
61095;Laerm;20450;49.074;9.158;2022-09-01T06:12:45;46.65;42.65;65.58;;
61095;Laerm;20450;49.074;9.158;2022-09-01T06:15:20;45.89;42.35;59.03;;
61095;Laerm;20450;49.074;9.158;2022-09-01T06:17:51;44.39;42.65;56.31;;
61095;Laerm;20450;49.074;9.158;2022-09-01T06:20:18;44.15;42.53;51.86;;
61095;Laerm;20450;49.074;9.158;2022-09-01T06:22:47;43.91;42.29;47.74;;
61095;Laerm;20450;49.074;9.158;2022-09-01T06:25:15;44.19;41.68;56.67;;
61095;Laerm;20450;49.074;9.158;2022-09-01T06:27:46;43.70;42.09;46.87;;
61095;Laerm;20450;49.074;9.158;2022-09-01T06:30:16;48.06;41.96;70.77;;
61095;Laerm;20450;49.074;9.158;2022-09-01T06:33:01;44.36;42.09;58.65;;
61095;Laerm;20450;49.074;9.158;2022-09-01T06:35:31;45.79;42.47;63.54;;
61095;Laerm;20450;49.074;9.158;2022-09-01T06:37:59;44.82;42.95;49.81;;
61095;Laerm;20450;49.074;9.158;2022-09-01T06:40:39;45.52;41.75;59.24;;
61095;Laerm;20450;49.074;9.158;2022-09-01T06:43:10;44.77;42.29;56.17;;
61095;Laerm;20450;49.074;9.158;2022-09-01T06:46:43;45.19;42.29;59.65;;
61095;Laerm;20450;49.074;9.158;2022-09-01T06:49:56;48.27;41.46;64.44;;
61095;Laerm;20450;49.074;9.158;2022-09-01T06:53:43;44.58;39.34;61.65;;
61095;Laerm;20450;49.074;9.158;2022-09-01T06:56:34;48.33;41.22;74.54;;
61095;Laerm;20450;49.074;9.158;2022-09-01T06:59:15;49.31;40.80;66.85;;
61095;Laerm;20450;49.074;9.158;2022-09-01T07:01:48;45.96;40.03;59.76;;
61095;Laerm;20450;49.074;9.158;2022-09-01T07:09:08;43.58;35.94;62.51;;
61095;Laerm;20450;49.074;9.158;2022-09-01T07:12:29;42.72;33.44;58.43;;
61095;Laerm;20450;49.074;9.158;2022-09-01T07:14:56;42.95;36.45;55.32;;
61095;Laerm;20450;49.074;9.158;2022-09-01T07:17:53;44.12;35.04;58.81;;
61095;Laerm;20450;49.074;9.158;2022-09-01T07:20:24;43.68;37.12;51.89;;
61095;Laerm;20450;49.074;9.158;2022-09-01T07:22:55;43.98;35.04;58.78;;
61095;Laerm;20450;49.074;9.158;2022-09-01T07:25:39;43.26;36.45;56.26;;
61095;Laerm;20450;49.074;9.158;2022-09-01T07:28:38;42.86;40.33;50.39;;
61095;Laerm;20450;49.074;9.158;2022-09-01T07:31:17;43.03;40.23;62.47;;
61095;Laerm;20450;49.074;9.158;2022-09-01T07:34:08;42.56;39.58;55.50;;
61095;Laerm;20450;49.074;9.158;2022-09-01T07:37:52;42.95;39.21;55.12;;
61095;Laerm;20450;49.074;9.158;2022-09-01T07:41:07;42.72;39.58;52.48;;
61095;Laerm;20450;49.074;9.158;2022-09-01T07:44:12;43.38;40.89;49.34;;
61095;Laerm;20450;49.074;9.158;2022-09-01T07:46:58;42.89;40.62;50.29;;
61095;Laerm;20450;49.074;9.158;2022-09-01T07:49:45;43.27;38.95;53.30;;
61095;Laerm;20450;49.074;9.158;2022-09-01T07:52:33;41.95;37.88;50.99;;
61095;Laerm;20450;49.074;9.158;2022-09-01T07:55:01;42.18;39.21;49.08;;
61095;Laerm;20450;49.074;9.158;2022-09-01T07:57:30;48.53;40.53;60.23;;
61095;Laerm;20450;49.074;9.158;2022-09-01T07:59:57;43.11;40.62;55.50;;
61095;Laerm;20450;49.074;9.158;2022-09-01T08:02:41;42.88;40.33;51.96;;
61095;Laerm;20450;49.074;9.158;2022-09-01T08:05:16;42.64;38.81;54.33;;
61095;Laerm;20450;49.074;9.158;2022-09-01T08:07:44;42.60;38.81;53.48;;
61095;Laerm;20450;49.074;9.158;2022-09-01T08:10:26;45.06;39.08;64.78;;
61095;Laerm;20450;49.074;9.158;2022-09-01T08:12:56;42.31;38.52;52.65;;
61095;Laerm;20450;49.074;9.158;2022-09-01T08:15:25;45.26;39.81;63.21;;
61095;Laerm;20450;49.074;9.158;2022-09-01T08:18:14;42.56;39.92;50.16;;
61095;Laerm;20450;49.074;9.158;2022-09-01T08:20:43;43.70;40.13;56.33;;
61095;Laerm;20450;49.074;9.158;2022-09-01T08:23:28;42.75;38.81;54.93;;
61095;Laerm;20450;49.074;9.158;2022-09-01T08:25:56;58.50;40.53;80.48;;
61095;Laerm;20450;49.074;9.158;2022-09-01T08:28:25;47.13;38.52;64.10;;
61095;Laerm;20450;49.074;9.158;2022-09-01T08:30:54;42.78;39.58;55.42;;
61095;Laerm;20450;49.074;9.158;2022-09-01T08:33:23;42.24;37.88;51.52;;
61095;Laerm;20450;49.074;9.158;2022-09-01T08:36:00;48.14;34.69;71.19;;
61095;Laerm;20450;49.074;9.158;2022-09-01T08:38:32;44.76;39.21;59.43;;
61095;Laerm;20450;49.074;9.158;2022-09-01T08:41:32;45.32;38.37;66.93;;
61095;Laerm;20450;49.074;9.158;2022-09-01T08:47:35;44.44;38.52;68.66;;
61095;Laerm;20450;49.074;9.158;2022-09-01T08:50:23;42.50;38.52;52.69;;
61095;Laerm;20450;49.074;9.158;2022-09-01T08:53:10;42.67;38.37;57.08;;
61095;Laerm;20450;49.074;9.158;2022-09-01T08:55:46;42.68;37.88;51.86;;
61095;Laerm;20450;49.074;9.158;2022-09-01T08:58:16;42.78;39.08;51.54;;
61095;Laerm;20450;49.074;9.158;2022-09-01T09:01:22;42.73;38.67;51.72;;
61095;Laerm;20450;49.074;9.158;2022-09-01T09:04:12;42.89;38.67;55.17;;
61095;Laerm;20450;49.074;9.158;2022-09-01T09:06:52;42.20;38.67;59.00;;
61095;Laerm;20450;49.074;9.158;2022-09-01T09:09:39;42.24;39.08;58.81;;
61095;Laerm;20450;49.074;9.158;2022-09-01T09:12:28;43.22;39.58;57.26;;
61095;Laerm;20450;49.074;9.158;2022-09-01T09:15:12;42.16;38.52;57.37;;
61095;Laerm;20450;49.074;9.158;2022-09-01T09:17:50;43.42;39.21;64.61;;
61095;Laerm;20450;49.074;9.158;2022-09-01T09:20:28;42.07;38.52;52.47;;
61095;Laerm;20450;49.074;9.158;2022-09-01T09:22:55;42.94;38.67;62.35;;
61095;Laerm;20450;49.074;9.158;2022-09-01T09:25:23;44.10;38.67;58.08;;
61095;Laerm;20450;49.074;9.158;2022-09-01T09:27:50;42.84;38.37;53.82;;
61095;Laerm;20450;49.074;9.158;2022-09-01T09:30:29;42.15;38.52;51.18;;
61095;Laerm;20450;49.074;9.158;2022-09-01T09:32:59;42.57;39.92;48.40;;
61095;Laerm;20450;49.074;9.158;2022-09-01T09:35:50;43.06;39.34;58.02;;
61095;Laerm;20450;49.074;9.158;2022-09-01T09:38:24;42.68;38.95;53.21;;
61095;Laerm;20450;49.074;9.158;2022-09-01T09:41:02;43.80;39.58;58.83;;
61095;Laerm;20450;49.074;9.158;2022-09-01T09:43:47;46.78;38.95;63.91;;
61095;Laerm;20450;49.074;9.158;2022-09-01T09:46:26;41.50;37.88;52.39;;
61095;Laerm;20450;49.074;9.158;2022-09-01T09:49:14;42.28;38.05;50.77;;
61095;Laerm;20450;49.074;9.158;2022-09-01T09:51:46;42.45;38.37;50.57;;
61095;Laerm;20450;49.074;9.158;2022-09-01T09:54:22;42.52;38.21;52.59;;
61095;Laerm;20450;49.074;9.158;2022-09-01T09:57:08;41.96;38.52;47.24;;
61095;Laerm;20450;49.074;9.158;2022-09-01T09:59:40;41.82;38.37;58.02;;
61095;Laerm;20450;49.074;9.158;2022-09-01T10:02:32;41.82;38.21;59.11;;
61095;Laerm;20450;49.074;9.158;2022-09-01T10:05:34;42.37;38.05;56.97;;
61095;Laerm;20450;49.074;9.158;2022-09-01T10:08:07;43.81;38.37;56.53;;
61095;Laerm;20450;49.074;9.158;2022-09-01T10:10:41;43.63;38.52;59.93;;
61095;Laerm;20450;49.074;9.158;2022-09-01T10:13:13;42.04;37.88;50.48;;
61095;Laerm;20450;49.074;9.158;2022-09-01T10:15:46;42.76;39.34;53.81;;
61095;Laerm;20450;49.074;9.158;2022-09-01T10:18:22;46.12;38.81;64.76;;
61095;Laerm;20450;49.074;9.158;2022-09-01T10:21:10;46.21;40.53;64.93;;
61095;Laerm;20450;49.074;9.158;2022-09-01T10:23:41;44.12;39.70;62.28;;
61095;Laerm;20450;49.074;9.158;2022-09-01T10:26:17;42.35;39.23;49.63;;
61095;Laerm;20450;49.074;9.158;2022-09-01T10:28:51;42.71;38.81;59.80;;
61095;Laerm;20450;49.074;9.158;2022-09-01T10:31:22;42.25;38.81;50.51;;
61095;Laerm;20450;49.074;9.158;2022-09-01T10:33:56;45.41;39.21;61.93;;
61095;Laerm;20450;49.074;9.158;2022-09-01T10:36:24;44.16;38.81;66.14;;
61095;Laerm;20450;49.074;9.158;2022-09-01T10:38:53;51.43;39.34;78.29;;
61095;Laerm;20450;49.074;9.158;2022-09-01T10:41:49;47.25;38.37;73.57;;
61095;Laerm;20450;49.074;9.158;2022-09-01T10:44:29;45.13;39.46;64.22;;
61095;Laerm;20450;49.074;9.158;2022-09-01T10:47:00;45.88;38.05;69.01;;
61095;Laerm;20450;49.074;9.158;2022-09-01T10:50:00;46.48;39.21;69.92;;
61095;Laerm;20450;49.074;9.158;2022-09-01T10:53:06;47.64;39.21;71.10;;
61095;Laerm;20450;49.074;9.158;2022-09-01T10:55:40;42.77;39.58;53.82;;
61095;Laerm;20450;49.074;9.158;2022-09-01T10:58:45;42.37;38.67;49.35;;
61095;Laerm;20450;49.074;9.158;2022-09-01T11:02:12;42.02;38.05;54.58;;
61095;Laerm;20450;49.074;9.158;2022-09-01T11:05:14;42.19;39.21;48.78;;
61095;Laerm;20450;49.074;9.158;2022-09-01T11:07:42;41.99;37.88;48.23;;
61095;Laerm;20450;49.074;9.158;2022-09-01T11:10:52;42.23;38.95;52.35;;
61095;Laerm;20450;49.074;9.158;2022-09-01T11:13:42;42.00;38.67;54.07;;
61095;Laerm;20450;49.074;9.158;2022-09-01T11:16:27;42.70;39.70;47.90;;
61095;Laerm;20450;49.074;9.158;2022-09-01T11:19:40;46.75;40.03;70.61;;
61095;Laerm;20450;49.074;9.158;2022-09-01T11:22:25;42.37;38.52;57.35;;
61095;Laerm;20450;49.074;9.158;2022-09-01T11:25:13;42.07;38.37;51.20;;
61095;Laerm;20450;49.074;9.158;2022-09-01T11:28:37;42.00;38.81;50.49;;
61095;Laerm;20450;49.074;9.158;2022-09-01T11:31:24;42.52;39.35;50.79;;
61095;Laerm;20450;49.074;9.158;2022-09-01T11:34:07;43.43;39.58;57.56;;
61095;Laerm;20450;49.074;9.158;2022-09-01T11:36:49;43.48;39.81;59.54;;
61095;Laerm;20450;49.074;9.158;2022-09-01T11:39:32;42.53;39.92;49.69;;
61095;Laerm;20450;49.074;9.158;2022-09-01T11:42:06;42.35;39.58;51.30;;
61095;Laerm;20450;49.074;9.158;2022-09-01T11:44:47;50.05;39.46;79.61;;
61095;Laerm;20450;49.074;9.158;2022-09-01T11:47:19;43.26;39.92;54.48;;
61095;Laerm;20450;49.074;9.158;2022-09-01T11:49:54;43.95;39.58;56.84;;
61095;Laerm;20450;49.074;9.158;2022-09-01T11:55:48;43.47;39.21;60.67;;
61095;Laerm;20450;49.074;9.158;2022-09-01T11:58:30;42.59;39.70;53.67;;
61095;Laerm;20450;49.074;9.158;2022-09-01T12:01:17;44.39;38.81;60.99;;
61095;Laerm;20450;49.074;9.158;2022-09-01T12:03:47;42.47;39.46;45.36;;
61095;Laerm;20450;49.074;9.158;2022-09-01T12:06:23;43.03;39.70;59.53;;
61095;Laerm;20450;49.074;9.158;2022-09-01T12:08:55;47.60;39.68;66.67;;
61095;Laerm;20450;49.074;9.158;2022-09-01T12:11:27;43.06;38.95;55.12;;
61095;Laerm;20450;49.074;9.158;2022-09-01T12:13:59;44.48;40.03;55.01;;
61095;Laerm;20450;49.074;9.158;2022-09-01T12:16:32;43.01;39.92;57.89;;
61095;Laerm;20450;49.074;9.158;2022-09-01T12:19:00;43.41;40.03;58.32;;
61095;Laerm;20450;49.074;9.158;2022-09-01T12:21:33;43.43;39.70;58.24;;
61095;Laerm;20450;49.074;9.158;2022-09-01T12:24:16;43.77;39.70;59.93;;
61095;Laerm;20450;49.074;9.158;2022-09-01T12:26:45;43.16;40.23;53.58;;
61095;Laerm;20450;49.074;9.158;2022-09-01T12:29:14;42.52;40.03;48.40;;
61095;Laerm;20450;49.074;9.158;2022-09-01T12:31:46;42.53;39.34;51.44;;
61095;Laerm;20450;49.074;9.158;2022-09-01T12:34:26;43.07;40.23;61.04;;
61095;Laerm;20450;49.074;9.158;2022-09-01T12:37:09;42.64;39.58;53.00;;
61095;Laerm;20450;49.074;9.158;2022-09-01T12:39:41;45.48;40.03;70.45;;
61095;Laerm;20450;49.074;9.158;2022-09-01T12:42:22;56.93;40.53;78.43;;
61095;Laerm;20450;49.074;9.158;2022-09-01T12:44:53;51.93;41.53;74.15;;
61095;Laerm;20450;49.074;9.158;2022-09-01T12:47:46;46.16;40.33;68.75;;
61095;Laerm;20450;49.074;9.158;2022-09-01T12:50:43;52.57;39.92;73.55;;
61095;Laerm;20450;49.074;9.158;2022-09-01T12:53:19;52.24;39.34;71.66;;
61095;Laerm;20450;49.074;9.158;2022-09-01T12:56:17;56.18;39.08;72.24;;
61095;Laerm;20450;49.074;9.158;2022-09-01T12:58:50;42.24;38.81;54.54;;
61095;Laerm;20450;49.074;9.158;2022-09-01T13:01:27;43.23;40.03;55.43;;
61095;Laerm;20450;49.074;9.158;2022-09-01T13:04:29;48.04;39.92;70.46;;
61095;Laerm;20450;49.074;9.158;2022-09-01T13:07:03;51.05;40.23;64.39;;
61095;Laerm;20450;49.074;9.158;2022-09-01T13:09:30;43.86;39.68;58.74;;
61095;Laerm;20450;49.074;9.158;2022-09-01T13:12:15;43.31;39.46;64.70;;
61095;Laerm;20450;49.074;9.158;2022-09-01T13:14:43;43.97;39.46;61.62;;
61095;Laerm;20450;49.074;9.158;2022-09-01T13:17:11;44.03;40.23;63.38;;
61095;Laerm;20450;49.074;9.158;2022-09-01T13:19:41;44.10;39.34;60.33;;
61095;Laerm;20450;49.074;9.158;2022-09-01T13:22:09;43.22;39.92;53.86;;
61095;Laerm;20450;49.074;9.158;2022-09-01T13:24:36;43.90;40.89;58.03;;
61095;Laerm;20450;49.074;9.158;2022-09-01T13:27:03;48.69;40.33;69.29;;
61095;Laerm;20450;49.074;9.158;2022-09-01T13:29:47;42.67;39.34;59.86;;
61095;Laerm;20450;49.074;9.158;2022-09-01T13:32:23;43.80;39.70;58.24;;
61095;Laerm;20450;49.074;9.158;2022-09-01T13:35:56;42.57;39.46;51.70;;
61095;Laerm;20450;49.074;9.158;2022-09-01T13:38:24;42.56;39.58;48.67;;
61095;Laerm;20450;49.074;9.158;2022-09-01T13:40:53;42.87;39.34;48.31;;
61095;Laerm;20450;49.074;9.158;2022-09-01T13:43:24;45.60;39.70;65.81;;
61095;Laerm;20450;49.074;9.158;2022-09-01T13:46:00;42.44;39.81;50.84;;
61095;Laerm;20450;49.074;9.158;2022-09-01T13:48:28;43.01;39.08;55.13;;
61095;Laerm;20450;49.074;9.158;2022-09-01T13:51:42;43.57;40.13;56.65;;
61095;Laerm;20450;49.074;9.158;2022-09-01T13:54:09;43.02;39.81;54.36;;
61095;Laerm;20450;49.074;9.158;2022-09-01T13:56:36;43.58;38.95;57.80;;
61095;Laerm;20450;49.074;9.158;2022-09-01T13:59:03;43.72;40.03;61.48;;
61095;Laerm;20450;49.074;9.158;2022-09-01T14:01:30;46.50;40.23;62.88;;
61095;Laerm;20450;49.074;9.158;2022-09-01T14:03:57;43.94;38.67;62.62;;
61095;Laerm;20450;49.074;9.158;2022-09-01T14:06:26;42.81;39.70;53.34;;
61095;Laerm;20450;49.074;9.158;2022-09-01T14:08:55;43.22;39.34;66.86;;
61095;Laerm;20450;49.074;9.158;2022-09-01T14:11:22;43.73;39.46;63.34;;
61095;Laerm;20450;49.074;9.158;2022-09-01T14:13:50;42.34;38.95;54.17;;
61095;Laerm;20450;49.074;9.158;2022-09-01T14:16:17;42.32;39.46;48.46;;
61095;Laerm;20450;49.074;9.158;2022-09-01T14:18:44;41.88;38.05;45.75;;
61095;Laerm;20450;49.074;9.158;2022-09-01T14:21:12;42.26;39.08;53.86;;
61095;Laerm;20450;49.074;9.158;2022-09-01T14:23:40;42.31;39.21;53.49;;
61095;Laerm;20450;49.074;9.158;2022-09-01T14:26:17;43.41;40.03;54.88;;
61095;Laerm;20450;49.074;9.158;2022-09-01T14:28:45;42.58;39.21;51.08;;
61095;Laerm;20450;49.074;9.158;2022-09-01T14:31:18;42.45;39.58;52.00;;
61095;Laerm;20450;49.074;9.158;2022-09-01T14:33:48;42.85;38.95;55.27;;
61095;Laerm;20450;49.074;9.158;2022-09-01T14:36:20;42.59;39.81;47.91;;
61095;Laerm;20450;49.074;9.158;2022-09-01T14:38:50;43.02;39.21;56.98;;
61095;Laerm;20450;49.074;9.158;2022-09-01T14:41:21;42.64;39.81;53.06;;
61095;Laerm;20450;49.074;9.158;2022-09-01T14:43:50;42.75;40.43;57.19;;
61095;Laerm;20450;49.074;9.158;2022-09-01T14:46:18;43.51;40.23;50.82;;
61095;Laerm;20450;49.074;9.158;2022-09-01T14:48:47;45.99;41.06;65.59;;
61095;Laerm;20450;49.074;9.158;2022-09-01T14:51:22;44.49;41.06;64.49;;
61095;Laerm;20450;49.074;9.158;2022-09-01T14:53:51;43.64;40.23;56.55;;
61095;Laerm;20450;49.074;9.158;2022-09-01T14:56:20;46.96;40.13;69.46;;
61095;Laerm;20450;49.074;9.158;2022-09-01T14:58:51;42.94;39.70;56.30;;
61095;Laerm;20450;49.074;9.158;2022-09-01T15:01:20;43.04;39.58;52.45;;
61095;Laerm;20450;49.074;9.158;2022-09-01T15:04:01;43.10;39.92;54.87;;
61095;Laerm;20450;49.074;9.158;2022-09-01T15:06:28;42.64;40.13;52.00;;
61095;Laerm;20450;49.074;9.158;2022-09-01T15:08:55;43.22;40.23;54.95;;
61095;Laerm;20450;49.074;9.158;2022-09-01T15:11:24;44.81;40.13;60.21;;
61095;Laerm;20450;49.074;9.158;2022-09-01T15:13:51;48.65;40.43;66.44;;
61095;Laerm;20450;49.074;9.158;2022-09-01T15:16:22;46.75;40.45;62.02;;
61095;Laerm;20450;49.074;9.158;2022-09-01T15:18:55;49.11;40.80;69.16;;
61095;Laerm;20450;49.074;9.158;2022-09-01T15:21:30;48.71;40.53;68.39;;